Time;durP1;ratioP1;P1;durP2;ratioP2;P2;SDS_P1;SDS_P2;PMS_P1;PMS_P2;Temp;Humidity;BMP_temperature;BMP_pressure;BME280_temperature;BME280_humidity;BME280_pressure;Samples;Min_cycle;Max_cycle;Signal;HPM_P1;HPM_P2
2022/02/06 00:01:10;;;;;;;12.38;4.70;;;6.10;99.90;;;;;;5012581;28;20053;-59
2022/02/06 00:03:36;;;;;;;19.40;8.38;;;6.00;99.90;;;;;;5038322;28;20060;-57
2022/02/06 00:06:03;;;;;;;14.63;4.35;;;5.90;99.90;;;;;;5037635;28;20029;-59
2022/02/06 00:08:28;;;;;;;9.40;2.70;;;5.90;99.90;;;;;;5042170;28;20025;-59
2022/02/06 00:10:54;;;;;;;10.05;3.20;;;5.90;99.90;;;;;;5048421;28;20137;-59
2022/02/06 00:13:19;;;;;;;20.02;7.75;;;5.90;99.90;;;;;;5046196;28;20083;-59
2022/02/06 00:15:45;;;;;;;7.55;2.50;;;5.80;99.90;;;;;;5044008;28;20033;-58
2022/02/06 00:18:10;;;;;;;7.35;2.95;;;5.80;99.90;;;;;;5045254;28;20037;-57
2022/02/06 00:20:47;;;;;;;9.15;3.45;;;5.70;99.90;;;;;;5046438;28;20079;-58
2022/02/06 00:23:14;;;;;;;9.73;2.20;;;5.70;99.90;;;;;;5043244;28;20052;-58
2022/02/06 00:26:03;;;;;;;6.47;2.17;;;5.70;99.90;;;;;;5046632;28;20025;-59
2022/02/06 00:31:09;;;;;;;4.80;2.05;;;5.60;99.90;;;;;;5037079;28;20437;-60
2022/02/06 00:34:04;;;;;;;4.97;2.22;;;5.50;99.90;;;;;;5036596;28;20560;-59
2022/02/06 00:39:09;;;;;;;7.82;2.05;;;5.50;99.90;;;;;;5039562;28;20032;-58
2022/02/06 00:41:37;;;;;;;10.95;2.85;;;5.50;99.90;;;;;;5042904;28;20052;-59
2022/02/06 00:44:04;;;;;;;8.02;2.08;;;5.50;99.90;;;;;;5040614;28;20106;-60
2022/02/06 00:46:36;;;;;;;5.57;2.10;;;5.50;99.90;;;;;;5046910;28;20024;-59
2022/02/06 00:49:11;;;;;;;6.97;3.17;;;5.50;99.90;;;;;;5046610;28;20033;-59
2022/02/06 00:51:54;;;;;;;8.20;1.73;;;5.50;99.90;;;;;;5042631;28;20178;-59
2022/02/06 00:54:20;;;;;;;7.07;2.10;;;5.50;99.90;;;;;;5046821;28;20024;-58
2022/02/06 00:56:45;;;;;;;8.18;3.05;;;5.60;99.90;;;;;;5037026;28;20039;-57
2022/02/06 00:59:11;;;;;;;10.75;2.22;;;5.60;99.90;;;;;;5043639;28;20082;-58
2022/02/06 01:01:41;;;;;;;6.97;2.17;;;5.60;99.90;;;;;;5016857;28;20076;-60
2022/02/06 01:04:06;;;;;;;10.52;2.08;;;5.60;99.90;;;;;;5014547;28;20112;-59
2022/02/06 01:06:32;;;;;;;12.38;2.15;;;5.60;99.90;;;;;;5018039;28;20599;-58
2022/02/06 01:08:57;;;;;;;8.93;2.28;;;5.70;99.90;;;;;;5012658;28;20080;-58
2022/02/06 01:11:23;;;;;;;8.35;2.10;;;5.70;99.90;;;;;;5018198;28;20104;-58
2022/02/06 01:14:18;;;;;;;10.82;2.78;;;5.70;99.90;;;;;;5021864;28;20049;-58
2022/02/06 01:16:55;;;;;;;6.88;1.85;;;5.70;99.90;;;;;;5017571;28;20033;-60
2022/02/06 01:19:24;;;;;;;6.60;2.25;;;5.70;99.90;;;;;;5013924;28;20030;-57
2022/02/06 01:22:03;;;;;;;9.13;2.10;;;5.70;99.90;;;;;;5026842;28;20034;-58
2022/02/06 01:24:46;;;;;;;6.35;1.48;;;5.80;99.90;;;;;;5023465;28;20555;-59
2022/02/06 01:27:20;;;;;;;5.33;1.80;;;5.80;99.90;;;;;;5025691;28;20397;-57
2022/02/06 01:32:18;;;;;;;8.75;1.83;;;5.80;99.90;;;;;;5024726;28;20030;-59
2022/02/06 01:34:57;;;;;;;11.68;1.95;;;5.80;99.90;;;;;;5022215;28;20617;-58
2022/02/06 01:37:39;;;;;;;4.38;1.45;;;5.90;99.90;;;;;;5024156;28;20049;-58
2022/02/06 01:40:11;;;;;;;6.05;1.60;;;5.90;99.90;;;;;;5021975;28;20080;-59
2022/02/06 01:42:49;;;;;;;7.38;1.83;;;5.90;99.90;;;;;;5025552;28;20057;-59
2022/02/06 02:09:50;;;;;;;7.88;1.40;;;6.00;99.90;;;;;;5029119;28;20045;-59
2022/02/06 02:17:44;;;;;;;8.38;2.30;;;6.10;99.90;;;;;;5013304;28;20480;-56
2022/02/06 02:31:07;;;;;;;6.13;1.30;;;6.20;99.90;;;;;;5022175;28;20017;-59
2022/02/06 02:47:12;;;;;;;4.60;1.23;;;6.30;99.90;;;;;;5015124;28;20090;-57
2022/02/06 02:49:40;;;;;;;8.10;2.60;;;6.30;99.90;;;;;;5014747;28;20056;-59
2022/02/06 02:52:13;;;;;;;9.70;1.45;;;6.30;99.90;;;;;;5027912;28;20284;-58
2022/02/06 02:54:41;;;;;;;9.98;2.10;;;6.30;99.90;;;;;;5016179;28;20049;-59
2022/02/06 02:57:18;;;;;;;4.20;1.45;;;6.30;99.90;;;;;;5017441;28;20073;-59
2022/02/06 03:02:10;;;;;;;6.03;1.98;;;6.30;99.90;;;;;;5013491;28;20702;-59
2022/02/06 03:04:35;;;;;;;5.85;1.25;;;6.30;99.90;;;;;;5025962;28;20580;-59
2022/02/06 03:07:03;;;;;;;3.67;1.50;;;6.40;99.90;;;;;;5030418;28;20030;-56
2022/02/06 03:09:34;;;;;;;4.13;1.38;;;6.40;99.90;;;;;;5027540;28;20103;-60
2022/02/06 03:11:59;;;;;;;7.78;1.42;;;6.40;99.90;;;;;;5031953;28;20029;-58
2022/02/06 03:14:39;;;;;;;5.82;2.17;;;6.40;99.90;;;;;;5031492;28;20109;-58
2022/02/06 03:17:05;;;;;;;5.53;1.55;;;6.40;99.90;;;;;;5033657;28;20079;-59
2022/02/06 03:19:39;;;;;;;11.77;3.00;;;6.40;99.90;;;;;;5025905;28;20033;-57
2022/02/06 03:22:05;;;;;;;13.23;1.50;;;6.50;99.90;;;;;;5016443;28;20112;-56
2022/02/06 03:24:39;;;;;;;4.22;1.50;;;6.50;99.90;;;;;;5028024;28;20033;-56
2022/02/06 03:27:05;;;;;;;9.15;1.95;;;6.60;99.90;;;;;;5013072;28;20483;-55
2022/02/06 03:29:31;;;;;;;9.13;2.10;;;6.60;99.90;;;;;;5023218;28;20048;-58
2022/02/06 03:31:56;;;;;;;9.73;1.85;;;6.70;99.90;;;;;;5012170;28;20022;-58
2022/02/06 03:34:22;;;;;;;6.28;1.75;;;6.60;99.90;;;;;;5020130;28;20036;-56
2022/02/06 03:36:48;;;;;;;7.10;1.65;;;6.60;99.90;;;;;;5022078;28;20113;-59
2022/02/06 03:39:16;;;;;;;6.30;1.30;;;6.60;99.90;;;;;;5017616;28;20487;-56
2022/02/06 03:42:32;;;;;;;8.35;1.83;;;6.50;99.90;;;;;;5024334;28;20049;-57
2022/02/06 03:44:37;;;;;;;8.02;2.40;;;6.60;99.90;;;;;;5030172;28;20038;-57
2022/02/06 03:47:11;;;;;;;14.32;1.95;;;6.50;99.90;;;;;;5022133;28;20080;-58
2022/02/06 03:49:54;;;;;;;10.07;2.50;;;6.50;99.90;;;;;;5012477;28;20040;-59
2022/02/06 03:52:24;;;;;;;10.85;2.85;;;6.50;99.90;;;;;;5025920;28;20052;-59
2022/02/06 03:54:50;;;;;;;6.45;2.00;;;6.50;99.90;;;;;;5013940;28;20443;-60
2022/02/06 03:57:15;;;;;;;5.18;2.08;;;6.50;99.90;;;;;;5013754;28;20056;-58
2022/02/06 03:59:41;;;;;;;7.95;1.83;;;6.50;99.90;;;;;;5010955;28;20030;-59
2022/02/06 04:02:07;;;;;;;9.52;2.00;;;6.40;99.90;;;;;;5003360;28;20045;-60
2022/02/06 04:04:32;;;;;;;6.38;2.10;;;6.40;99.90;;;;;;5018612;28;20159;-60
2022/02/06 04:07:05;;;;;;;11.13;2.55;;;6.40;99.90;;;;;;5019467;28;20030;-59
2022/02/06 04:09:37;;;;;;;10.38;2.10;;;6.30;99.90;;;;;;5012508;28;20026;-59
2022/02/06 04:12:04;;;;;;;5.43;1.80;;;6.30;99.90;;;;;;5030090;28;20033;-60
2022/02/06 04:14:40;;;;;;;4.63;1.92;;;6.30;99.90;;;;;;5019323;28;20075;-59
2022/02/06 04:17:18;;;;;;;5.80;2.08;;;6.30;99.90;;;;;;5020276;28;20453;-58
2022/02/06 04:19:44;;;;;;;9.48;2.13;;;6.20;99.90;;;;;;5022688;28;20045;-59
2022/02/06 04:22:09;;;;;;;16.15;2.00;;;6.20;99.90;;;;;;5022071;28;20030;-59
2022/02/06 04:24:35;;;;;;;11.95;2.05;;;6.10;99.90;;;;;;5028210;28;20091;-59
2022/02/06 04:27:00;;;;;;;8.73;2.15;;;6.10;99.90;;;;;;5019540;28;20030;-60
2022/02/06 04:29:26;;;;;;;4.40;1.73;;;6.10;99.90;;;;;;5016770;28;20108;-59
2022/02/06 04:31:51;;;;;;;10.43;2.42;;;6.10;99.90;;;;;;5026918;28;20033;-59
2022/02/06 04:34:22;;;;;;;8.93;1.95;;;6.10;99.90;;;;;;5013963;28;20064;-60
2022/02/06 04:37:06;;;;;;;5.97;2.10;;;6.10;99.90;;;;;;5012918;28;20030;-60
2022/02/06 05:17:04;;;;;;;4.75;1.20;;;6.20;99.90;;;;;;5017248;28;20025;-60
2022/02/06 05:22:33;;;;;;;2.65;1.13;;;6.20;99.90;;;;;;5030395;28;20123;-58
2022/02/06 05:25:33;;;;;;;5.78;1.45;;;6.20;99.90;;;;;;5021364;28;20080;-59
2022/02/06 05:30:49;;;;;;;2.53;0.90;;;6.30;99.90;;;;;;5010960;28;20056;-60
2022/02/06 05:33:15;;;;;;;5.43;0.90;;;6.20;99.90;;;;;;5019192;28;20025;-58
2022/02/06 05:35:41;;;;;;;5.63;1.33;;;6.20;99.90;;;;;;5026481;28;20056;-58
2022/02/06 05:38:07;;;;;;;2.85;1.35;;;6.20;99.90;;;;;;5015095;28;20021;-59
2022/02/06 05:40:32;;;;;;;3.80;1.02;;;6.20;99.90;;;;;;5012940;28;20550;-59
2022/02/06 05:42:58;;;;;;;2.63;0.82;;;6.20;99.90;;;;;;5022691;28;20491;-59
2022/02/06 05:45:24;;;;;;;2.88;0.90;;;6.20;99.90;;;;;;5012169;28;20061;-55
2022/02/06 05:47:51;;;;;;;1.98;0.80;;;6.20;99.90;;;;;;5022190;28;20033;-59
2022/02/06 05:50:18;;;;;;;3.80;0.90;;;6.20;99.90;;;;;;5020265;28;20026;-59
2022/02/06 05:52:44;;;;;;;4.07;1.15;;;6.20;99.90;;;;;;5010285;28;20170;-59
2022/02/06 05:55:11;;;;;;;4.80;0.90;;;6.10;99.90;;;;;;5013688;28;20723;-58
2022/02/06 05:57:36;;;;;;;3.38;1.20;;;6.10;99.90;;;;;;5021676;28;20026;-54
2022/02/06 06:00:04;;;;;;;2.80;1.08;;;6.10;99.90;;;;;;5024871;28;20472;-58
2022/02/06 06:02:30;;;;;;;3.60;1.25;;;6.10;99.90;;;;;;5008290;28;20053;-58
2022/02/06 06:04:56;;;;;;;6.38;1.30;;;6.10;99.90;;;;;;5014676;28;20026;-58
2022/02/06 06:07:22;;;;;;;5.20;1.02;;;6.10;99.90;;;;;;5020544;28;20036;-58
2022/02/06 06:09:48;;;;;;;2.80;1.20;;;6.10;99.90;;;;;;5018605;28;20363;-51
2022/02/06 06:12:13;;;;;;;2.42;1.27;;;6.10;99.90;;;;;;5019065;28;20056;-57
2022/02/06 06:14:40;;;;;;;2.35;1.02;;;6.10;99.90;;;;;;5014764;28;20391;-59
2022/02/06 06:17:06;;;;;;;4.60;1.38;;;6.10;99.90;;;;;;5021197;28;20021;-58
2022/02/06 06:19:34;;;;;;;1.83;0.80;;;6.10;99.90;;;;;;5030887;28;20495;-55
2022/02/06 06:22:00;;;;;;;1.90;0.88;;;6.10;99.90;;;;;;5030671;28;20027;-58
2022/02/06 06:24:27;;;;;;;7.20;1.00;;;6.10;99.90;;;;;;5025552;28;20112;-55
2022/02/06 06:26:53;;;;;;;4.13;1.20;;;6.10;99.90;;;;;;4999300;28;20026;-58
2022/02/06 06:29:19;;;;;;;4.95;1.77;;;6.10;99.90;;;;;;5029791;28;20033;-59
2022/02/06 06:31:45;;;;;;;3.30;0.90;;;6.10;99.90;;;;;;5019560;28;20368;-58
2022/02/06 06:34:11;;;;;;;5.05;1.40;;;6.10;99.90;;;;;;4997722;28;20033;-58
2022/02/06 06:36:36;;;;;;;4.18;1.33;;;6.10;99.90;;;;;;5028619;28;20028;-59
2022/02/06 06:39:04;;;;;;;3.58;1.10;;;6.00;99.90;;;;;;5018060;28;20045;-58
2022/02/06 06:41:30;;;;;;;2.47;1.00;;;6.00;99.90;;;;;;5020665;28;20058;-59
2022/02/06 06:43:55;;;;;;;3.03;0.70;;;6.00;99.90;;;;;;5013952;28;20557;-59
2022/02/06 06:46:21;;;;;;;1.98;0.75;;;6.00;99.90;;;;;;5030909;28;20495;-59
2022/02/06 06:48:46;;;;;;;28.60;8.90;;;6.00;99.90;;;;;;5032449;28;20139;-59
2022/02/06 06:51:12;;;;;;;22.92;7.55;;;6.00;99.90;;;;;;5021271;28;20103;-56
2022/02/06 06:53:41;;;;;;;77.60;39.47;;;6.00;99.90;;;;;;5027260;28;20018;-59
2022/02/06 06:56:15;;;;;;;142.20;51.17;;;6.00;99.90;;;;;;5024385;28;20029;-58
2022/02/06 06:58:44;;;;;;;75.75;30.67;;;6.00;99.90;;;;;;5014472;28;20049;-59
2022/02/06 07:01:41;;;;;;;60.85;25.35;;;6.00;99.90;;;;;;5014844;28;20033;-59
2022/02/06 07:03:56;;;;;;;60.28;27.88;;;6.00;99.90;;;;;;5026613;28;20407;-59
2022/02/06 07:06:21;;;;;;;15.82;8.35;;;5.90;99.90;;;;;;5027336;28;20128;-60
2022/02/06 07:08:47;;;;;;;43.63;23.63;;;5.90;99.90;;;;;;5012878;28;20026;-59
2022/02/06 07:11:12;;;;;;;9.27;4.45;;;5.90;99.90;;;;;;5027913;28;20033;-59
2022/02/06 07:13:38;;;;;;;3.75;2.97;;;5.90;99.90;;;;;;5011082;28;20049;-59
2022/02/06 07:16:06;;;;;;;5.45;2.25;;;5.90;99.90;;;;;;5029743;28;20033;-59
2022/02/06 07:18:31;;;;;;;2.58;1.30;;;5.90;99.90;;;;;;5020053;28;20040;-58
2022/02/06 07:20:57;;;;;;;13.20;1.58;;;6.00;99.90;;;;;;5020799;28;20025;-58
2022/02/06 07:23:22;;;;;;;3.47;0.90;;;5.90;99.90;;;;;;5013245;28;20041;-56
2022/02/06 07:25:51;;;;;;;2.60;1.00;;;5.90;99.90;;;;;;5025178;28;20044;-59
2022/02/06 07:28:19;;;;;;;2.97;0.98;;;6.00;99.90;;;;;;5030820;28;20493;-58
2022/02/06 07:30:45;;;;;;;3.22;0.82;;;6.00;99.90;;;;;;5015015;28;20112;-58
2022/02/06 07:33:13;;;;;;;1.25;0.88;;;6.00;99.90;;;;;;5021616;28;20410;-58
2022/02/06 07:35:39;;;;;;;3.30;0.73;;;6.00;99.90;;;;;;5028696;28;20033;-58
2022/02/06 07:38:04;;;;;;;3.10;0.90;;;6.00;99.90;;;;;;5012066;28;20041;-59
2022/02/06 07:40:30;;;;;;;3.58;1.05;;;5.90;99.90;;;;;;5022663;28;20549;-59
2022/02/06 07:42:56;;;;;;;2.03;0.93;;;6.00;99.90;;;;;;5030492;28;20070;-59
2022/02/06 07:45:21;;;;;;;17.13;8.85;;;6.00;99.90;;;;;;5014305;28;20045;-59
2022/02/06 07:47:48;;;;;;;17.10;9.63;;;6.00;99.90;;;;;;5017402;28;20410;-59
2022/02/06 07:50:15;;;;;;;30.45;15.05;;;6.00;99.90;;;;;;5024117;28;20120;-59
2022/02/06 07:52:41;;;;;;;42.13;20.85;;;6.00;99.90;;;;;;5021063;28;20479;-55
2022/02/06 07:55:08;;;;;;;30.88;14.77;;;6.00;99.90;;;;;;5020238;28;20025;-58
2022/02/06 07:57:35;;;;;;;28.90;13.52;;;6.00;99.90;;;;;;5026181;28;20124;-59
2022/02/06 08:00:04;;;;;;;51.88;26.98;;;6.00;99.90;;;;;;5011891;28;20033;-59
2022/02/06 08:02:29;;;;;;;15.50;7.30;;;6.00;99.90;;;;;;5003438;28;20050;-58
2022/02/06 08:04:56;;;;;;;26.15;14.38;;;6.10;99.90;;;;;;5023542;28;20030;-55
2022/02/06 08:07:22;;;;;;;6.25;3.20;;;6.10;99.90;;;;;;5027765;28;20087;-56
2022/02/06 08:09:56;;;;;;;3.60;2.10;;;6.10;99.90;;;;;;5012096;28;20037;-58
2022/02/06 08:12:33;;;;;;;5.88;2.85;;;6.10;99.90;;;;;;5017578;28;20068;-59
2022/02/06 08:15:03;;;;;;;2.28;1.55;;;6.10;99.90;;;;;;5019119;28;20057;-58
2022/02/06 08:17:35;;;;;;;2.47;1.48;;;6.10;99.90;;;;;;5026632;28;20029;-58
2022/02/06 08:20:03;;;;;;;1.67;1.25;;;6.20;99.90;;;;;;5019476;28;20039;-59
2022/02/06 08:22:29;;;;;;;1.80;0.73;;;6.20;99.90;;;;;;5023035;28;20045;-60
2022/02/06 08:24:56;;;;;;;2.17;0.85;;;6.20;99.90;;;;;;5028663;28;20087;-60
2022/02/06 08:27:23;;;;;;;0.80;0.75;;;6.20;99.90;;;;;;5029779;28;20041;-59
2022/02/06 08:29:49;;;;;;;1.80;0.77;;;6.20;99.90;;;;;;5017856;28;20038;-60
2022/02/06 08:32:17;;;;;;;1.45;0.70;;;6.20;99.90;;;;;;5020350;28;20074;-59
2022/02/06 08:34:43;;;;;;;2.25;1.27;;;6.30;99.90;;;;;;5015597;28;20029;-60
2022/02/06 08:37:10;;;;;;;1.30;0.90;;;6.30;99.90;;;;;;5011103;28;20033;-60
2022/02/06 08:39:38;;;;;;;2.53;0.90;;;6.30;99.90;;;;;;5012016;28;20491;-60
2022/02/06 08:42:06;;;;;;;2.10;0.80;;;6.30;99.90;;;;;;5011412;28;20033;-60
2022/02/06 08:44:32;;;;;;;0.40;0.40;;;6.30;99.90;;;;;;5012549;28;20037;-60
2022/02/06 08:46:58;;;;;;;0.40;0.40;;;6.30;99.90;;;;;;5019336;28;20261;-60
2022/02/06 08:49:23;;;;;;;4.20;0.68;;;6.30;99.90;;;;;;5018455;28;20044;-58
2022/02/06 08:51:50;;;;;;;0.52;0.40;;;6.30;99.90;;;;;;5030606;28;20037;-60
2022/02/06 08:54:16;;;;;;;0.80;0.50;;;6.30;99.90;;;;;;5023238;28;20041;-59
2022/02/06 08:56:41;;;;;;;4.03;0.73;;;6.30;99.90;;;;;;5022209;28;20030;-59
2022/02/06 08:59:08;;;;;;;1.10;0.73;;;6.30;99.90;;;;;;5010529;28;20034;-61
2022/02/06 09:01:35;;;;;;;9.38;3.42;;;6.30;99.90;;;;;;5025718;28;20038;-60
2022/02/06 09:04:01;;;;;;;11.93;6.38;;;6.30;99.90;;;;;;5001612;28;20086;-59
2022/02/06 09:06:27;;;;;;;11.80;5.88;;;6.30;99.90;;;;;;5013044;28;20080;-60
2022/02/06 09:08:56;;;;;;;17.92;8.07;;;6.20;99.90;;;;;;5010164;28;20048;-60
2022/02/06 09:11:23;;;;;;;21.55;8.77;;;6.20;99.90;;;;;;5011654;28;20034;-60
2022/02/06 09:13:49;;;;;;;13.43;6.00;;;6.20;99.90;;;;;;5012830;28;20472;-60
2022/02/06 09:16:15;;;;;;;23.67;8.63;;;6.20;99.90;;;;;;5023599;28;20072;-60
2022/02/06 09:18:40;;;;;;;11.95;5.72;;;6.20;99.90;;;;;;5020864;28;20113;-60
2022/02/06 09:21:06;;;;;;;5.68;2.63;;;6.20;99.90;;;;;;5021972;28;20455;-60
2022/02/06 09:23:31;;;;;;;13.45;6.47;;;6.30;99.90;;;;;;5014667;28;20806;-58
2022/02/06 09:25:57;;;;;;;3.53;1.95;;;6.30;99.90;;;;;;5026381;28;20069;-59
2022/02/06 09:28:23;;;;;;;2.85;1.77;;;6.30;99.90;;;;;;5011010;28;20137;-57
2022/02/06 09:30:48;;;;;;;3.88;2.15;;;6.30;99.90;;;;;;5011120;28;20045;-60
2022/02/06 09:35:39;;;;;;;0.98;0.57;;;6.30;99.90;;;;;;5010185;28;20037;-59
2022/02/06 09:38:05;;;;;;;1.55;1.10;;;6.30;99.90;;;;;;5019390;28;20105;-60
2022/02/06 09:40:37;;;;;;;8.88;3.90;;;6.40;99.90;;;;;;5011662;28;20040;-60
2022/02/06 09:43:04;;;;;;;12.57;5.55;;;6.40;99.90;;;;;;5030211;28;20057;-60
2022/02/06 09:45:31;;;;;;;22.80;10.00;;;6.40;99.90;;;;;;5030819;28;20044;-59
2022/02/06 09:47:57;;;;;;;16.83;7.53;;;6.40;99.90;;;;;;5027179;28;20087;-59
2022/02/06 09:50:24;;;;;;;18.42;6.40;;;6.40;99.90;;;;;;5025056;28;20041;-59
2022/02/06 09:52:50;;;;;;;15.65;6.30;;;6.50;99.90;;;;;;5021060;28;20025;-60
2022/02/06 09:55:19;;;;;;;2.20;1.23;;;6.50;99.90;;;;;;5029071;28;20075;-59
2022/02/06 09:57:55;;;;;;;16.65;6.30;;;6.50;99.90;;;;;;5032750;28;20446;-60
2022/02/06 10:00:24;;;;;;;26.45;9.68;;;6.50;99.90;;;;;;5030591;28;20029;-59
2022/02/06 10:02:51;;;;;;;15.43;5.18;;;6.50;99.90;;;;;;5006976;28;20590;-58
2022/02/06 10:05:17;;;;;;;40.92;13.80;;;6.50;99.90;;;;;;5014566;28;20056;-58
2022/02/06 10:07:48;;;;;;;7.60;3.22;;;6.50;99.90;;;;;;5033179;28;20483;-60
2022/02/06 10:10:14;;;;;;;7.75;3.20;;;6.60;99.90;;;;;;5022311;28;20056;-60
2022/02/06 10:12:45;;;;;;;14.02;7.03;;;6.60;99.90;;;;;;5025229;28;20116;-60
2022/02/06 10:15:13;;;;;;;74.38;27.23;;;6.60;99.90;;;;;;5017513;28;20051;-59
2022/02/06 10:17:39;;;;;;;136.48;37.45;;;6.70;99.90;;;;;;5025473;28;20133;-60
2022/02/06 10:20:16;;;;;;;28.55;10.63;;;6.60;99.90;;;;;;5022457;28;20117;-60
2022/02/06 10:22:56;;;;;;;5.80;2.90;;;6.70;99.90;;;;;;5020643;28;20029;-60
2022/02/06 10:25:22;;;;;;;2.15;1.20;;;6.70;99.90;;;;;;5031569;28;20029;-60
2022/02/06 10:27:56;;;;;;;8.43;4.57;;;6.70;99.90;;;;;;5016688;28;20036;-59
2022/02/06 10:30:36;;;;;;;;;;;6.70;99.90;;;;;;5025208;28;20137;-59
2022/02/06 10:33:20;;;;;;;3.72;2.10;;;6.70;99.90;;;;;;5014560;28;20360;-59
2022/02/06 10:35:57;;;;;;;3.05;2.05;;;6.70;99.90;;;;;;5014671;28;20030;-58
2022/02/06 10:38:25;;;;;;;6.07;3.28;;;6.70;99.90;;;;;;5016475;28;20025;-59
2022/02/06 10:41:24;;;;;;;2.50;1.50;;;6.70;99.90;;;;;;5013295;28;20050;-59
2022/02/06 10:44:04;;;;;;;1.75;0.90;;;6.70;99.90;;;;;;5008132;28;20120;-59
2022/02/06 10:46:32;;;;;;;2.20;1.63;;;6.80;99.90;;;;;;5025426;28;20067;-59
2022/02/06 10:49:09;;;;;;;4.30;1.95;;;6.80;99.90;;;;;;5030781;28;20049;-60
2022/02/06 10:51:51;;;;;;;4.93;1.63;;;6.80;99.90;;;;;;5021015;28;20057;-59
2022/02/06 10:54:24;;;;;;;30.30;11.25;;;6.80;99.90;;;;;;5019120;28;20025;-60
2022/02/06 10:57:10;;;;;;;22.63;9.02;;;6.80;99.90;;;;;;5018457;28;20534;-60
2022/02/06 10:59:53;;;;;;;19.23;9.98;;;6.90;99.90;;;;;;5013410;28;20045;-58
2022/02/06 11:02:28;;;;;;;15.10;5.40;;;6.90;99.90;;;;;;5004011;28;20494;-58
2022/02/06 11:05:08;;;;;;;4.78;2.40;;;6.80;99.90;;;;;;5038433;28;20029;-54
2022/02/06 11:07:34;;;;;;;12.20;7.05;;;6.80;99.90;;;;;;5034523;28;20040;-59
2022/02/06 11:10:14;;;;;;;3.92;1.85;;;6.80;99.90;;;;;;5037087;28;20450;-59
2022/02/06 11:12:41;;;;;;;10.98;5.00;;;6.80;99.90;;;;;;5032065;28;20018;-58
2022/02/06 11:15:24;;;;;;;5.47;2.83;;;6.80;99.90;;;;;;5033784;28;20029;-60
2022/02/06 11:18:11;;;;;;;22.65;10.38;;;6.80;99.90;;;;;;5046485;28;20112;-59
2022/02/06 11:20:58;;;;;;;8.88;3.97;;;6.70;99.90;;;;;;5034946;28;20037;-60
2022/02/06 11:23:45;;;;;;;7.88;3.55;;;6.70;99.90;;;;;;5030635;28;20037;-59
2022/02/06 11:26:17;;;;;;;13.13;5.38;;;6.70;99.90;;;;;;5028333;28;20113;-58
2022/02/06 11:28:43;;;;;;;13.00;6.15;;;6.70;99.90;;;;;;5042172;28;20079;-60
2022/02/06 11:31:09;;;;;;;10.32;5.13;;;6.60;99.90;;;;;;5032305;28;20037;-58
2022/02/06 11:33:35;;;;;;;10.93;5.03;;;6.60;99.90;;;;;;5033672;28;20391;-59
2022/02/06 11:36:08;;;;;;;12.60;4.85;;;6.60;99.90;;;;;;5032816;28;20445;-59
2022/02/06 11:45:04;;;;;;;21.85;8.45;;;6.60;99.90;;;;;;5021399;28;20111;-60
2022/02/06 11:47:35;;;;;;;29.90;12.05;;;6.50;99.90;;;;;;5025347;28;20553;-58
2022/02/06 11:50:07;;;;;;;27.83;9.60;;;6.50;99.90;;;;;;5024201;28;20025;-57
2022/02/06 11:53:04;;;;;;;20.40;8.52;;;6.50;99.90;;;;;;5029575;28;20483;-59
2022/02/06 11:55:44;;;;;;;23.02;10.23;;;6.40;99.90;;;;;;5020831;28;20041;-59
2022/02/06 11:58:18;;;;;;;15.95;6.30;;;6.40;99.90;;;;;;5027776;28;20033;-60
2022/02/06 12:00:44;;;;;;;24.20;9.93;;;6.40;99.90;;;;;;5021727;28;20499;-60
2022/02/06 12:03:13;;;;;;;19.67;8.63;;;6.40;99.90;;;;;;5005156;28;20104;-58
2022/02/06 12:05:57;;;;;;;24.80;9.75;;;6.40;99.90;;;;;;5027292;28;20029;-59
2022/02/06 12:08:23;;;;;;;45.50;17.20;;;6.40;99.90;;;;;;5026255;28;20022;-58
2022/02/06 12:10:58;;;;;;;37.03;12.88;;;6.50;99.90;;;;;;5029632;28;20030;-59
2022/02/06 12:13:33;;;;;;;18.52;7.30;;;6.40;99.90;;;;;;5027613;28;20067;-59
2022/02/06 12:16:03;;;;;;;26.38;13.00;;;6.40;99.90;;;;;;5027420;28;20029;-59
2022/02/06 12:18:37;;;;;;;10.35;5.95;;;6.40;99.90;;;;;;5026101;28;20029;-56
2022/02/06 12:21:23;;;;;;;7.43;4.93;;;6.40;99.90;;;;;;5029016;28;20025;-57
2022/02/06 12:23:51;;;;;;;8.18;4.75;;;6.40;99.90;;;;;;5024079;28;20116;-59
2022/02/06 12:26:32;;;;;;;12.18;5.68;;;6.40;99.90;;;;;;5029393;28;20034;-57
2022/02/06 12:29:07;;;;;;;3.30;1.90;;;6.40;99.90;;;;;;5028002;28;20443;-59
2022/02/06 12:31:33;;;;;;;2.17;1.33;;;6.40;99.90;;;;;;5028865;28;20025;-59
2022/02/06 12:37:06;;;;;;;16.88;8.93;;;6.40;99.90;;;;;;5026285;28;20388;-58
2022/02/06 12:39:33;;;;;;;2.33;1.70;;;6.40;99.90;;;;;;5028401;28;20037;-60
2022/02/06 12:41:59;;;;;;;3.03;1.63;;;6.40;99.90;;;;;;5028965;28;20564;-58
2022/02/06 12:44:27;;;;;;;1.58;1.00;;;6.40;99.90;;;;;;5028796;28;20040;-60
2022/02/06 12:47:01;;;;;;;5.80;2.28;;;6.40;99.90;;;;;;5028558;28;20037;-60
2022/02/06 12:49:32;;;;;;;2.30;1.40;;;6.40;99.90;;;;;;5024931;28;20033;-56
2022/02/06 12:51:59;;;;;;;1.08;0.95;;;6.40;99.90;;;;;;5023062;28;20025;-58
2022/02/06 12:54:26;;;;;;;0.95;0.80;;;6.40;99.90;;;;;;5028761;28;20034;-60
2022/02/06 12:56:56;;;;;;;0.82;0.80;;;6.50;99.90;;;;;;5029132;28;20087;-60
2022/02/06 12:59:24;;;;;;;1.10;0.60;;;6.50;99.90;;;;;;5010253;28;20030;-58
2022/02/06 13:01:50;;;;;;;0.90;0.73;;;6.50;99.90;;;;;;5019339;28;20502;-60
2022/02/06 13:04:28;;;;;;;0.98;0.80;;;6.50;99.90;;;;;;5008561;28;20398;-59
2022/02/06 13:07:00;;;;;;;1.35;1.02;;;6.50;99.90;;;;;;5029314;28;20017;-60
2022/02/06 13:09:35;;;;;;;0.90;0.80;;;6.50;99.90;;;;;;5029118;28;20056;-60
2022/02/06 13:12:28;;;;;;;2.00;0.80;;;6.50;99.90;;;;;;5028879;28;20033;-59
2022/02/06 13:23:05;;;;;;;2.47;0.90;;;6.70;99.90;;;;;;5028416;28;20368;-59
2022/02/06 13:25:53;;;;;;;5.03;1.30;;;6.70;99.90;;;;;;5019729;28;20072;-60
2022/02/06 13:28:41;;;;;;;4.78;1.10;;;6.70;99.90;;;;;;5025804;28;20033;-60
2022/02/06 13:36:44;;;;;;;2.00;1.27;;;6.90;99.90;;;;;;5026818;28;20391;-58
2022/02/06 13:39:36;;;;;;;2.90;1.60;;;7.00;99.90;;;;;;5020984;28;20026;-59
2022/02/06 13:42:16;;;;;;;7.35;1.77;;;7.00;99.90;;;;;;5037664;28;20018;-60
2022/02/06 13:44:42;;;;;;;10.98;3.88;;;7.00;99.90;;;;;;5021941;28;20022;-60
2022/02/06 13:47:10;;;;;;;3.67;1.83;;;7.00;99.90;;;;;;5029353;28;20049;-60
2022/02/06 13:49:44;;;;;;;2.65;0.93;;;7.10;99.90;;;;;;5009166;28;20502;-60
2022/02/06 13:52:13;;;;;;;7.82;0.60;;;7.10;99.90;;;;;;5018081;28;20430;-59
2022/02/06 13:54:43;;;;;;;4.22;1.02;;;7.20;99.90;;;;;;5023111;28;20104;-59
2022/02/06 13:57:09;;;;;;;2.20;0.77;;;7.30;99.90;;;;;;5026928;28;20057;-60
2022/02/06 13:59:39;;;;;;;1.77;0.50;;;7.30;99.90;;;;;;5019275;28;20033;-58
2022/02/06 14:02:10;;;;;;;2.13;0.90;;;7.20;99.90;;;;;;5029007;28;20099;-60
2022/02/06 14:04:38;;;;;;;2.65;0.63;;;7.00;99.90;;;;;;5002516;28;20041;-60
2022/02/06 14:07:05;;;;;;;3.63;1.75;;;6.70;99.90;;;;;;5027756;28;20045;-60
2022/02/06 14:09:47;;;;;;;0.82;0.65;;;6.60;99.90;;;;;;5024194;28;20111;-59
2022/02/06 14:12:20;;;;;;;2.00;1.13;;;6.40;99.90;;;;;;5026844;28;20036;-58
2022/02/06 14:14:56;;;;;;;0.68;0.50;;;6.20;99.90;;;;;;5026596;28;20021;-60
2022/02/06 14:17:29;;;;;;;2.45;1.35;;;6.00;99.90;;;;;;5023150;28;20049;-60
2022/02/06 14:19:57;;;;;;;4.10;1.45;;;5.80;99.90;;;;;;5020151;28;20037;-58
2022/02/06 14:22:31;;;;;;;4.50;0.80;;;5.80;99.90;;;;;;5025204;28;20484;-57
2022/02/06 14:25:06;;;;;;;3.90;0.80;;;5.60;99.90;;;;;;5024561;28;20109;-56
2022/02/06 14:27:38;;;;;;;;;;;5.50;99.90;;;;;;5026781;28;20052;-58
2022/02/06 14:30:27;;;;;;;2.30;0.90;;;5.40;99.90;;;;;;5021302;28;20567;-57
2022/02/06 14:33:29;;;;;;;1.67;0.95;;;5.40;99.90;;;;;;5040580;28;20037;-60
2022/02/06 14:36:00;;;;;;;1.20;0.57;;;5.40;99.90;;;;;;5035200;28;20072;-60
2022/02/06 14:43:56;;;;;;;1.50;0.93;;;5.40;99.90;;;;;;5007866;28;20061;-58
2022/02/06 14:46:22;;;;;;;1.95;1.30;;;5.40;99.90;;;;;;5042127;28;20351;-59
2022/02/06 14:48:47;;;;;;;5.15;2.28;;;5.40;99.90;;;;;;5036333;28;20128;-59
2022/02/06 14:51:15;;;;;;;3.25;1.23;;;5.40;99.90;;;;;;5038270;28;20055;-59
2022/02/06 14:53:42;;;;;;;5.65;1.77;;;5.50;99.90;;;;;;5043078;28;20037;-60
2022/02/06 14:56:09;;;;;;;4.13;1.80;;;5.50;99.90;;;;;;5035218;28;20052;-59
2022/02/06 14:58:35;;;;;;;5.60;3.08;;;5.50;99.90;;;;;;5040382;28;20036;-60
2022/02/06 15:01:01;;;;;;;8.32;4.72;;;5.50;99.90;;;;;;5042181;28;20025;-56
2022/02/06 15:03:27;;;;;;;4.75;2.05;;;5.50;99.90;;;;;;5028984;28;20049;-59
2022/02/06 15:05:52;;;;;;;3.33;1.58;;;5.50;99.90;;;;;;5046302;28;20490;-59
2022/02/06 15:08:19;;;;;;;1.88;1.02;;;5.60;99.90;;;;;;5037819;28;20044;-59
2022/02/06 15:10:46;;;;;;;3.08;1.10;;;5.60;99.90;;;;;;5032226;28;20025;-60
2022/02/06 15:13:13;;;;;;;3.28;1.40;;;5.60;99.90;;;;;;5035488;28;20040;-59
2022/02/06 15:15:46;;;;;;;3.90;2.25;;;5.60;99.90;;;;;;5041668;28;20048;-60
2022/02/06 15:20:52;;;;;;;27.58;12.40;;;5.60;99.90;;;;;;5038880;28;20041;-60
2022/02/06 15:23:18;;;;;;;10.48;5.05;;;5.60;99.90;;;;;;5041520;28;20041;-59
2022/02/06 15:25:44;;;;;;;52.30;22.55;;;5.60;99.90;;;;;;5044898;28;20028;-60
2022/02/06 15:28:09;;;;;;;35.30;14.52;;;5.60;99.90;;;;;;5048648;28;20040;-60
2022/02/06 15:30:36;;;;;;;66.15;26.70;;;5.60;99.90;;;;;;5047165;28;20074;-57